Dublin, Ireland

8:57 AM GMT on February 09, 2016 (GMT +0000)
Templeogue, Dublin | | Change Station
CLOSE
Current Station
Personal Weather Station
Location: Dublin, DUBLIN
Elevation: 174 ft
Nearby Weather Stations

Elev 174 ft 53.31 °N, 6.32 °W | Updated 1 minute ago

Mostly Cloudy
Mostly Cloudy
36.1 °F
Feels Like 36 °F
N
0.0
Wind Variable Wind from North
Gusts 0.0 mph

Today
High -- | Low -- °F
--% Chance of Precip.
Yesterday
High -- | Low -- °F
Precip. -- in
Pressure 29.03 in
Visibility 6.2 miles
Clouds Few 1800 ft
Mostly Cloudy 10000 ft
Windchill 36 °F
Dew Point 30 °F
Humidity 79%
Rainfall 0.00 in
Snow Depth Not available.
7:56 AM 5:23 PM
New Moon, 1% visible
METAR EIME 090830Z 23018KT 9999 FEW018 BKN100 02/00 Q0983
Pressure 29.03 in
Visibility 6.2 miles
Clouds Few 1800 ft
Mostly Cloudy 10000 ft
Windchill 36 °F
Dew Point 30 °F
Humidity 79%
Rainfall 0.00 in
Snow Depth Not available.
7:56 AM 5:23 PM
New Moon, 1% visible
METAR EIME 090830Z 23018KT 9999 FEW018 BKN100 02/00 Q0983

10-Day Weather Forecast

Almanac

Astronomy

Feb. 09, 2016 Rise Set
Actual Time
Civil Twilight
Nautical Twilight
Astronomical Twilight
Moon
Length of Visible Light
Length of Day
Tomorrow will be .
, % of the Moon is Illuminated

Today's Extremes

Country Highs Country Lows

Community

WunderPhotos

Upload Photos

1,891,571 photos uploaded!

WunderBlog® & News

Nearby

Air Quality

  Air Quality AQ Index Pollutant
Not available.

Snow Depth

Station Depth Elevation

Earthquake Activity

City Distance Mag. Time & Date
Minimum magnitude displayed is 2.5.

Coastal Water Temperatures

Place Temperature

Stations

Nearby Weather Stations

Station Location Temp. Windchill Dew Point Humidity Wind Precip. Elev Updated Type